Time;durP1;ratioP1;P1;durP2;ratioP2;P2;SDS_P1;SDS_P2;PMS_P1;PMS_P2;Temp;Humidity;BMP_temperature;BMP_pressure;BME280_temperature;BME280_humidity;BME280_pressure;Samples;Min_cycle;Max_cycle;Signal;HPM_P1;HPM_P2
2023/03/18 00:00:00;;;;;;;22.10;8.02;;;9.30;99.90;;;;;;4957546;29;20038;-93
2023/03/18 00:02:26;;;;;;;19.20;7.47;;;9.30;99.90;;;;;;4957896;29;20114;-96
2023/03/18 00:04:52;;;;;;;23.08;7.35;;;9.30;99.90;;;;;;4957653;29;20031;-96
2023/03/18 00:07:18;;;;;;;25.17;8.23;;;9.30;99.90;;;;;;4957788;29;20149;-95
2023/03/18 00:09:44;;;;;;;21.65;7.45;;;9.30;99.90;;;;;;4958453;28;20042;-94
2023/03/18 00:12:10;;;;;;;20.73;8.57;;;9.30;99.90;;;;;;4957208;29;20039;-95
2023/03/18 00:14:36;;;;;;;21.27;7.50;;;9.30;99.90;;;;;;4957357;29;20055;-95
2023/03/18 00:17:03;;;;;;;14.80;6.40;;;9.30;99.90;;;;;;4957247;29;20448;-94
2023/03/18 00:19:28;;;;;;;19.02;7.60;;;9.30;99.90;;;;;;4957213;29;20082;-94
2023/03/18 00:21:54;;;;;;;24.33;8.75;;;9.40;99.90;;;;;;4958072;29;20027;-96
2023/03/18 00:24:20;;;;;;;25.73;8.30;;;9.40;99.90;;;;;;4961052;29;20055;-94
2023/03/18 00:26:46;;;;;;;24.73;7.22;;;9.40;99.90;;;;;;4960014;29;20039;-95
2023/03/18 00:29:12;;;;;;;22.85;7.78;;;9.40;99.90;;;;;;4957193;29;20024;-95
2023/03/18 00:31:38;;;;;;;21.38;7.72;;;9.40;99.90;;;;;;4956736;29;20039;-93
2023/03/18 00:34:05;;;;;;;24.92;6.75;;;9.40;99.90;;;;;;4956998;29;20239;-95
2023/03/18 00:36:31;;;;;;;20.15;6.18;;;9.40;99.90;;;;;;4956905;29;20054;-95
2023/03/18 00:38:56;;;;;;;24.30;7.13;;;9.40;99.90;;;;;;4957165;29;20031;-95
2023/03/18 00:41:24;;;;;;;25.40;7.68;;;9.40;99.90;;;;;;4957319;29;20031;-94
2023/03/18 00:43:53;;;;;;;27.80;7.60;;;9.40;99.90;;;;;;4957871;29;20058;-96
2023/03/18 00:46:25;;;;;;;29.70;8.60;;;9.50;99.90;;;;;;4957652;29;20031;-95
2023/03/18 00:48:53;;;;;;;18.48;6.35;;;9.50;99.90;;;;;;4956882;29;20024;-96
2023/03/18 00:51:20;;;;;;;29.30;7.05;;;9.40;99.90;;;;;;4956623;29;20046;-94
2023/03/18 00:53:51;;;;;;;18.15;5.20;;;9.50;99.90;;;;;;4958027;28;20051;-96
2023/03/18 00:56:18;;;;;;;;;;;9.50;99.90;;;;;;4963258;28;20019;-95
2023/03/18 00:58:46;;;;;;;20.08;6.22;;;9.50;99.90;;;;;;4965353;29;19907;-95
2023/03/18 01:01:12;;;;;;;31.55;9.27;;;9.50;99.90;;;;;;4956552;29;20034;-96
2023/03/18 01:03:41;;;;;;;19.88;6.88;;;9.50;99.90;;;;;;4956284;29;20024;-95
2023/03/18 01:06:10;;;;;;;29.70;7.47;;;9.50;99.90;;;;;;4955749;29;20031;-95
2023/03/18 01:08:36;;;;;;;24.35;7.40;;;9.50;99.90;;;;;;4955665;29;20051;-94
2023/03/18 01:11:02;;;;;;;22.13;7.72;;;9.50;99.90;;;;;;4956071;29;20604;-94
2023/03/18 01:13:28;;;;;;;21.27;7.60;;;9.50;99.90;;;;;;4955690;29;20045;-94
2023/03/18 01:15:55;;;;;;;23.13;7.15;;;9.50;99.90;;;;;;4956096;29;20031;-94
2023/03/18 01:18:22;;;;;;;25.45;7.35;;;9.50;99.90;;;;;;4955785;29;20035;-93
2023/03/18 01:20:48;;;;;;;23.35;8.15;;;9.60;99.90;;;;;;4955847;29;20043;-95
2023/03/18 01:23:15;;;;;;;23.95;7.32;;;9.60;99.90;;;;;;4956040;29;20066;-94
2023/03/18 01:25:42;;;;;;;30.90;8.57;;;9.50;99.90;;;;;;4955573;29;20046;-95
2023/03/18 01:28:07;;;;;;;24.08;7.57;;;9.60;99.90;;;;;;4955784;29;20078;-94
2023/03/18 01:30:34;;;;;;;24.75;6.57;;;9.50;99.90;;;;;;4955633;29;20138;-95
2023/03/18 01:33:01;;;;;;;31.67;8.05;;;9.50;99.90;;;;;;4955716;29;20506;-95
2023/03/18 01:35:27;;;;;;;27.65;7.38;;;9.50;99.90;;;;;;4956029;29;20050;-95
2023/03/18 01:37:52;;;;;;;25.80;7.55;;;9.50;99.90;;;;;;4955771;29;20023;-95
2023/03/18 01:40:22;;;;;;;24.50;7.53;;;9.50;99.90;;;;;;4955442;29;20027;-95
2023/03/18 01:42:58;;;;;;;25.80;8.43;;;9.50;99.90;;;;;;4955124;29;20058;-95
2023/03/18 01:45:29;;;;;;;31.73;9.10;;;9.50;99.90;;;;;;4955442;29;20031;-93
2023/03/18 01:47:57;;;;;;;34.45;9.25;;;9.50;99.90;;;;;;4955604;29;20110;-95
2023/03/18 01:50:32;;;;;;;26.15;8.25;;;9.50;99.90;;;;;;4955437;29;20035;-94
2023/03/18 01:53:05;;;;;;;21.27;8.27;;;9.50;99.90;;;;;;4955481;29;20134;-95
2023/03/18 01:55:32;;;;;;;26.67;8.98;;;9.50;99.90;;;;;;4955501;29;20110;-95
2023/03/18 01:58:00;;;;;;;29.25;9.57;;;9.50;99.90;;;;;;4955408;29;20058;-94
2023/03/18 02:00:27;;;;;;;26.27;8.63;;;9.50;99.90;;;;;;4955285;29;20030;-95
2023/03/18 02:02:53;;;;;;;23.42;8.93;;;9.50;99.90;;;;;;4955542;29;20034;-96
2023/03/18 02:05:26;;;;;;;30.20;10.40;;;9.50;99.90;;;;;;4955119;29;20027;-95
2023/03/18 02:07:52;;;;;;;22.20;9.32;;;9.50;99.90;;;;;;4955288;28;20055;-95
2023/03/18 02:10:25;;;;;;;17.25;6.93;;;9.60;99.90;;;;;;4958014;29;20042;-94
2023/03/18 02:12:57;;;;;;;26.13;9.68;;;9.50;99.90;;;;;;4958984;29;20034;-95
2023/03/18 02:15:24;;;;;;;31.17;10.57;;;9.50;99.90;;;;;;4958641;29;20027;-95
2023/03/18 02:18:14;;;;;;;28.33;10.75;;;9.60;99.90;;;;;;4958527;29;20031;-96
2023/03/18 02:21:00;;;;;;;27.40;10.63;;;9.60;99.90;;;;;;4958555;29;20031;-96
2023/03/18 02:23:45;;;;;;;26.10;9.73;;;9.60;99.90;;;;;;4921197;29;20078;-95
2023/03/18 02:26:26;;;;;;;14.77;7.22;;;9.60;99.90;;;;;;4962094;29;20143;-95
2023/03/18 02:28:56;;;;;;;31.08;10.98;;;9.60;99.90;;;;;;4958699;29;20023;-96
2023/03/18 02:31:22;;;;;;;22.90;9.47;;;9.60;99.90;;;;;;4958850;29;20075;-95
2023/03/18 02:33:48;;;;;;;24.85;9.02;;;9.60;99.90;;;;;;4958288;29;20024;-95
2023/03/18 02:36:21;;;;;;;21.65;8.75;;;9.60;99.90;;;;;;4957979;29;20031;-95
2023/03/18 02:38:47;;;;;;;26.70;10.73;;;9.60;99.90;;;;;;4957535;29;20033;-95
2023/03/18 02:41:19;;;;;;;25.75;9.05;;;9.60;99.90;;;;;;4957840;29;20420;-95
2023/03/18 02:43:46;;;;;;;27.58;10.25;;;9.60;99.90;;;;;;4957893;29;20586;-95
2023/03/18 02:46:30;;;;;;;25.10;10.65;;;9.60;99.90;;;;;;4958337;29;20031;-95
2023/03/18 02:48:58;;;;;;;21.10;9.63;;;9.60;99.90;;;;;;4958431;29;20029;-94
2023/03/18 02:51:25;;;;;;;26.70;9.40;;;9.60;99.90;;;;;;4958134;29;20039;-94
2023/03/18 02:53:59;;;;;;;24.98;10.13;;;9.60;99.90;;;;;;4958190;29;20027;-95
2023/03/18 02:56:25;;;;;;;21.40;7.90;;;9.60;99.90;;;;;;4959999;28;20039;-96
2023/03/18 02:58:51;;;;;;;17.45;8.05;;;9.60;99.90;;;;;;4958612;29;20031;-95
2023/03/18 03:01:17;;;;;;;18.45;7.90;;;9.60;99.90;;;;;;4962232;29;20224;-96
2023/03/18 03:03:42;;;;;;;25.77;8.98;;;9.60;99.90;;;;;;4966751;29;20023;-95
2023/03/18 03:06:09;;;;;;;22.63;9.70;;;9.60;99.90;;;;;;4976354;29;20038;-94
2023/03/18 03:08:36;;;;;;;19.42;10.10;;;9.60;99.90;;;;;;4969576;29;20043;-95
2023/03/18 03:11:01;;;;;;;26.15;10.20;;;9.60;99.90;;;;;;4965049;29;20043;-94
2023/03/18 03:13:28;;;;;;;23.08;9.68;;;9.60;99.90;;;;;;4957337;29;20027;-94
2023/03/18 03:15:54;;;;;;;24.10;10.48;;;9.60;99.90;;;;;;4958595;28;20035;-95
2023/03/18 03:18:21;;;;;;;25.30;9.52;;;9.50;99.90;;;;;;4959289;29;20070;-95
2023/03/18 03:20:48;;;;;;;25.15;10.30;;;9.60;99.90;;;;;;4957335;28;20031;-95
2023/03/18 03:23:15;;;;;;;24.85;9.30;;;9.50;99.90;;;;;;4958192;29;20130;-95
2023/03/18 03:25:43;;;;;;;24.23;8.98;;;9.50;99.90;;;;;;4957147;29;20055;-96
2023/03/18 03:28:11;;;;;;;26.27;9.52;;;9.50;99.90;;;;;;4957346;29;20027;-95
2023/03/18 03:30:37;;;;;;;19.27;9.02;;;9.50;99.90;;;;;;4958847;29;20038;-95
2023/03/18 03:33:04;;;;;;;22.58;8.82;;;9.50;99.90;;;;;;4957938;29;20032;-96
2023/03/18 03:35:31;;;;;;;20.70;8.73;;;9.50;99.90;;;;;;4958700;29;20023;-95
2023/03/18 03:37:56;;;;;;;26.23;9.45;;;9.50;99.90;;;;;;4957731;29;20063;-95
2023/03/18 03:40:22;;;;;;;17.30;9.07;;;9.60;99.90;;;;;;4957991;29;20031;-95
2023/03/18 03:42:48;;;;;;;17.33;7.97;;;9.60;99.90;;;;;;4957569;29;20047;-94
2023/03/18 03:45:16;;;;;;;28.00;10.98;;;9.70;99.90;;;;;;4957396;29;20035;-94
2023/03/18 03:47:42;;;;;;;18.33;10.45;;;9.60;99.90;;;;;;4957864;29;20466;-95
2023/03/18 03:50:10;;;;;;;24.00;11.10;;;9.60;99.90;;;;;;4957869;29;20031;-95
2023/03/18 03:52:37;;;;;;;23.58;10.50;;;9.60;99.90;;;;;;4957692;29;20027;-94
2023/03/18 03:55:08;;;;;;;18.77;9.63;;;9.60;99.90;;;;;;4957535;29;20023;-95
2023/03/18 03:57:35;;;;;;;29.23;10.63;;;9.60;99.90;;;;;;4957663;29;20035;-95
2023/03/18 04:00:03;;;;;;;21.60;8.70;;;9.60;99.90;;;;;;4957262;29;20106;-95
2023/03/18 04:02:28;;;;;;;16.95;7.63;;;9.60;99.90;;;;;;4957959;29;20027;-95
2023/03/18 04:04:54;;;;;;;20.65;9.02;;;9.60;99.90;;;;;;4968855;29;20388;-95
2023/03/18 04:07:20;;;;;;;17.92;8.40;;;9.60;99.90;;;;;;4974490;29;20058;-94
2023/03/18 04:09:46;;;;;;;21.40;8.95;;;9.60;99.90;;;;;;4976098;29;20046;-94
2023/03/18 04:12:12;;;;;;;18.30;7.10;;;9.70;99.90;;;;;;4978414;28;20027;-92
2023/03/18 04:14:38;;;;;;;19.40;8.13;;;9.60;99.90;;;;;;4979872;28;20016;-95
2023/03/18 04:17:04;;;;;;;17.33;7.45;;;9.60;99.90;;;;;;4979571;28;20035;-93
2023/03/18 04:19:31;;;;;;;18.48;7.72;;;9.60;99.90;;;;;;4963650;28;20031;-94
2023/03/18 04:21:56;;;;;;;19.40;8.65;;;9.60;99.90;;;;;;4956075;29;20039;-95
2023/03/18 04:24:22;;;;;;;23.42;8.93;;;9.60;99.90;;;;;;4956450;29;20024;-94
2023/03/18 04:26:48;;;;;;;24.70;9.52;;;9.60;99.90;;;;;;4959789;29;20031;-95
2023/03/18 04:29:15;;;;;;;23.83;8.63;;;9.60;99.90;;;;;;4963247;29;20028;-94
2023/03/18 04:31:41;;;;;;;16.63;8.40;;;9.60;99.90;;;;;;4960273;28;20034;-96
2023/03/18 04:34:07;;;;;;;17.17;7.65;;;9.60;99.90;;;;;;4957881;29;20030;-96
2023/03/18 04:36:32;;;;;;;24.73;7.97;;;9.60;99.90;;;;;;4958339;29;20024;-96
2023/03/18 04:38:58;;;;;;;20.88;7.72;;;9.50;99.90;;;;;;4958243;29;20059;-95
2023/03/18 04:41:25;;;;;;;17.92;8.52;;;9.50;99.90;;;;;;4956996;29;20051;-94
2023/03/18 04:43:51;;;;;;;9.07;4.70;;;9.50;99.90;;;;;;4956916;29;20110;-95
2023/03/18 04:46:16;;;;;;;10.90;5.43;;;9.50;99.90;;;;;;4957018;29;20039;-95
2023/03/18 04:48:42;;;;;;;20.08;8.85;;;9.50;99.90;;;;;;4957611;29;20055;-96
2023/03/18 04:51:08;;;;;;;12.00;5.90;;;9.50;99.90;;;;;;4957598;29;20043;-95
2023/03/18 04:53:36;;;;;;;22.77;8.15;;;9.40;99.90;;;;;;4956863;29;20031;-94
2023/03/18 04:56:03;;;;;;;15.45;6.15;;;9.50;99.90;;;;;;4956306;29;20023;-95
2023/03/18 04:58:29;;;;;;;33.95;8.75;;;9.40;99.90;;;;;;4956269;29;20023;-96
2023/03/18 05:00:56;;;;;;;12.48;5.70;;;9.40;99.90;;;;;;4956850;29;20095;-96
2023/03/18 05:03:22;;;;;;;15.05;7.00;;;9.40;99.90;;;;;;4956740;29;20378;-96
2023/03/18 05:05:48;;;;;;;18.02;7.47;;;9.40;99.90;;;;;;4956401;29;20035;-96
2023/03/18 05:08:15;;;;;;;17.52;7.93;;;9.40;99.90;;;;;;4956169;29;20142;-96
2023/03/18 05:10:41;;;;;;;26.75;9.65;;;9.40;99.90;;;;;;4956258;29;20041;-94
2023/03/18 05:13:06;;;;;;;10.88;5.28;;;9.40;99.90;;;;;;4956743;29;20027;-95
2023/03/18 05:15:33;;;;;;;21.52;9.25;;;9.40;99.90;;;;;;4956876;29;20023;-96
2023/03/18 05:17:59;;;;;;;15.90;8.30;;;9.40;99.90;;;;;;4956839;29;20477;-95
2023/03/18 05:20:24;;;;;;;14.05;6.13;;;9.40;99.90;;;;;;4956032;29;20520;-96
2023/03/18 05:22:52;;;;;;;17.60;7.55;;;9.40;99.90;;;;;;4955719;29;20394;-96
2023/03/18 05:25:17;;;;;;;22.88;7.22;;;9.40;99.90;;;;;;4955875;29;20025;-94
2023/03/18 05:27:43;;;;;;;19.85;8.43;;;9.40;99.90;;;;;;4955918;29;20031;-95
2023/03/18 05:30:10;;;;;;;12.60;5.78;;;9.30;99.90;;;;;;4956238;29;20023;-96
2023/03/18 05:32:36;;;;;;;19.48;6.13;;;9.30;99.90;;;;;;4955209;29;20035;-95
2023/03/18 05:35:02;;;;;;;18.75;8.00;;;9.40;99.90;;;;;;4967279;29;20081;-94
2023/03/18 05:37:28;;;;;;;20.20;8.93;;;9.30;99.90;;;;;;4975857;29;20123;-94
2023/03/18 05:39:54;;;;;;;14.70;7.25;;;9.30;99.90;;;;;;4976705;29;20027;-94
2023/03/18 05:42:20;;;;;;;12.88;5.60;;;9.30;99.90;;;;;;4977942;28;20115;-94
2023/03/18 05:44:46;;;;;;;10.50;5.57;;;9.40;99.90;;;;;;4981982;28;20031;-92
2023/03/18 05:47:12;;;;;;;12.38;6.82;;;9.40;99.90;;;;;;4982510;28;20019;-94
2023/03/18 05:49:38;;;;;;;17.63;5.68;;;9.30;99.90;;;;;;4978386;28;20035;-95
2023/03/18 05:52:04;;;;;;;28.17;10.15;;;9.40;99.90;;;;;;4959818;29;20123;-95
2023/03/18 05:54:30;;;;;;;19.88;8.75;;;9.40;99.90;;;;;;4959460;29;20050;-95
2023/03/18 05:56:57;;;;;;;20.42;8.32;;;9.40;99.90;;;;;;4960146;29;20152;-95
2023/03/18 05:59:23;;;;;;;12.13;6.15;;;9.40;99.90;;;;;;4959741;29;20085;-95
2023/03/18 06:01:48;;;;;;;18.05;7.38;;;9.40;99.90;;;;;;4960022;29;20031;-96
2023/03/18 06:04:16;;;;;;;11.30;5.22;;;9.40;99.90;;;;;;4959659;29;20035;-95
2023/03/18 06:06:42;;;;;;;10.73;6.57;;;9.40;99.90;;;;;;4962598;28;20050;-96
2023/03/18 06:09:09;;;;;;;18.50;7.43;;;9.40;99.90;;;;;;4980630;28;20026;-96
2023/03/18 06:11:35;;;;;;;20.27;8.18;;;9.40;99.90;;;;;;4964902;28;20038;-94
2023/03/18 06:14:03;;;;;;;19.27;8.82;;;9.40;99.90;;;;;;4978686;28;20027;-92
2023/03/18 06:16:29;;;;;;;26.33;9.48;;;9.40;99.90;;;;;;4980049;28;20026;-95
2023/03/18 06:18:56;;;;;;;25.27;9.38;;;9.40;99.90;;;;;;4965502;28;20038;-96
2023/03/18 06:21:22;;;;;;;17.50;8.70;;;9.50;99.90;;;;;;4963881;28;20058;-95
2023/03/18 06:23:48;;;;;;;16.92;8.55;;;9.50;99.90;;;;;;4964538;28;20535;-96
2023/03/18 06:26:14;;;;;;;21.10;8.50;;;9.50;99.90;;;;;;4964391;28;20055;-96
2023/03/18 06:28:39;;;;;;;15.52;7.20;;;9.50;99.90;;;;;;4966110;28;20027;-95
2023/03/18 06:31:07;;;;;;;20.13;8.20;;;9.60;99.90;;;;;;4965736;28;20483;-95
2023/03/18 06:33:33;;;;;;;16.10;8.00;;;9.60;99.90;;;;;;4962370;28;20137;-94
2023/03/18 06:36:00;;;;;;;21.30;8.18;;;9.60;99.90;;;;;;4961024;28;20552;-95
2023/03/18 06:38:27;;;;;;;19.90;8.00;;;9.60;99.90;;;;;;4978482;28;20034;-96
2023/03/18 06:40:53;;;;;;;22.20;10.50;;;9.60;99.90;;;;;;4961780;28;20054;-95
2023/03/18 06:43:19;;;;;;;26.83;8.98;;;9.60;99.90;;;;;;4961555;28;20026;-94
2023/03/18 06:45:45;;;;;;;17.67;7.63;;;9.60;99.90;;;;;;4961493;28;20392;-95
2023/03/18 06:48:10;;;;;;;20.67;8.63;;;9.60;99.90;;;;;;4961880;28;20022;-96
2023/03/18 06:50:38;;;;;;;24.55;10.55;;;9.60;99.90;;;;;;4962172;28;20496;-95
2023/03/18 06:53:05;;;;;;;24.48;10.15;;;9.60;99.90;;;;;;4961896;28;20068;-95
2023/03/18 06:55:30;;;;;;;18.10;6.55;;;9.60;99.90;;;;;;4959940;28;20023;-96
2023/03/18 06:57:57;;;;;;;16.38;7.82;;;9.50;99.90;;;;;;4961807;28;20053;-96
2023/03/18 07:00:23;;;;;;;20.70;9.15;;;9.60;99.90;;;;;;4961424;28;20023;-96
2023/03/18 07:02:51;;;;;;;22.60;10.45;;;9.60;99.90;;;;;;4961977;28;20054;-96
2023/03/18 07:05:17;;;;;;;21.08;8.75;;;9.60;99.90;;;;;;4962747;28;20027;-95
2023/03/18 07:07:43;;;;;;;23.90;10.40;;;9.50;99.90;;;;;;4962294;28;20046;-96
2023/03/18 07:10:20;;;;;;;25.50;10.65;;;9.50;99.90;;;;;;4961922;28;20026;-95
2023/03/18 07:12:46;;;;;;;21.15;10.00;;;9.50;99.90;;;;;;4961834;28;20046;-94
2023/03/18 07:15:12;;;;;;;25.20;9.60;;;9.50;99.90;;;;;;4962190;28;20023;-94
2023/03/18 07:17:38;;;;;;;19.95;9.02;;;9.50;99.90;;;;;;4962215;28;20108;-96
2023/03/18 07:20:04;;;;;;;23.00;9.60;;;9.50;99.90;;;;;;4962170;28;20034;-95
2023/03/18 07:22:30;;;;;;;22.23;11.07;;;9.50;99.90;;;;;;4962756;28;20038;-96
2023/03/18 07:24:56;;;;;;;17.60;6.93;;;9.50;99.90;;;;;;4969023;28;20027;-95
2023/03/18 07:27:22;;;;;;;26.95;11.18;;;9.50;99.90;;;;;;4963783;28;20027;-95
2023/03/18 07:29:48;;;;;;;20.83;11.30;;;9.50;99.90;;;;;;4962629;28;20053;-94
2023/03/18 07:32:14;;;;;;;21.17;9.98;;;9.50;99.90;;;;;;4961553;28;20039;-94
2023/03/18 07:34:40;;;;;;;28.50;10.60;;;9.60;99.90;;;;;;4960555;28;20023;-96
2023/03/18 07:37:05;;;;;;;22.00;9.90;;;9.60;99.90;;;;;;4960784;28;20167;-96
2023/03/18 07:39:32;;;;;;;23.98;10.15;;;9.60;99.90;;;;;;4960251;28;20027;-94
2023/03/18 07:41:59;;;;;;;20.35;10.65;;;9.60;99.90;;;;;;4960450;28;20476;-95
2023/03/18 07:44:25;;;;;;;22.92;9.52;;;9.70;99.90;;;;;;4960067;28;20126;-95
2023/03/18 07:46:51;;;;;;;19.45;9.57;;;9.70;99.90;;;;;;4959441;28;20030;-95
2023/03/18 07:49:16;;;;;;;22.95;10.10;;;9.70;99.90;;;;;;4959608;28;20118;-95
2023/03/18 07:51:42;;;;;;;20.35;9.43;;;9.80;99.90;;;;;;4960176;28;20511;-95
2023/03/18 07:54:08;;;;;;;21.55;9.45;;;9.80;99.90;;;;;;4960392;28;20035;-94
2023/03/18 07:56:34;;;;;;;23.58;8.32;;;9.90;99.90;;;;;;4960368;28;20031;-95
2023/03/18 07:58:59;;;;;;;24.63;9.35;;;9.90;99.90;;;;;;4960205;28;20432;-94
2023/03/18 08:01:26;;;;;;;19.80;8.93;;;9.90;99.90;;;;;;4960152;28;20113;-95
2023/03/18 08:03:52;;;;;;;20.25;9.15;;;10.00;99.90;;;;;;4960197;28;20023;-95
2023/03/18 08:06:18;;;;;;;25.95;9.15;;;10.00;99.90;;;;;;4959976;28;20105;-96
2023/03/18 08:08:44;;;;;;;20.42;9.38;;;10.00;99.90;;;;;;4959931;28;20374;-95
2023/03/18 08:11:10;;;;;;;19.30;8.73;;;10.00;99.90;;;;;;4960123;28;20031;-95
2023/03/18 08:13:37;;;;;;;15.13;7.88;;;10.00;99.90;;;;;;4960753;28;20033;-95
2023/03/18 08:16:03;;;;;;;16.45;7.20;;;10.00;99.90;;;;;;4960389;28;20019;-94
2023/03/18 08:18:29;;;;;;;22.85;8.50;;;10.00;99.90;;;;;;4960345;28;20034;-95
2023/03/18 08:20:55;;;;;;;17.83;8.52;;;10.00;99.90;;;;;;4960028;28;20037;-95
2023/03/18 08:23:22;;;;;;;15.43;8.02;;;10.00;99.90;;;;;;4959503;28;20046;-95
2023/03/18 08:25:49;;;;;;;18.00;8.02;;;10.00;99.90;;;;;;4959995;28;20105;-95
2023/03/18 08:28:16;;;;;;;27.23;8.65;;;10.00;99.90;;;;;;4960629;28;20050;-95
2023/03/18 08:30:42;;;;;;;17.85;7.40;;;10.00;99.90;;;;;;4960130;28;20131;-96
2023/03/18 08:33:08;;;;;;;16.73;7.28;;;10.10;99.90;;;;;;4961730;28;20027;-95
2023/03/18 08:35:34;;;;;;;17.33;7.72;;;10.10;99.90;;;;;;4960643;28;20080;-96
2023/03/18 08:38:00;;;;;;;17.08;6.97;;;10.20;99.90;;;;;;4959432;28;20038;-96
2023/03/18 08:40:26;;;;;;;18.58;7.28;;;10.20;99.90;;;;;;4959509;28;20023;-96
2023/03/18 08:42:52;;;;;;;15.55;6.97;;;10.10;99.90;;;;;;4959998;28;20544;-96
2023/03/18 08:45:19;;;;;;;19.35;6.07;;;10.20;99.90;;;;;;4959656;28;20018;-95
2023/03/18 08:47:45;;;;;;;9.40;5.53;;;10.20;99.90;;;;;;4960975;28;20449;-96
2023/03/18 08:50:14;;;;;;;15.73;6.18;;;10.20;99.90;;;;;;4961561;28;20110;-94
2023/03/18 08:52:40;;;;;;;17.17;7.50;;;10.30;99.90;;;;;;4973574;28;20050;-95
2023/03/18 08:55:08;;;;;;;11.52;6.60;;;10.30;99.90;;;;;;4963548;28;20089;-95
2023/03/18 08:57:34;;;;;;;12.15;6.57;;;10.30;99.90;;;;;;4961273;28;20054;-96
2023/03/18 09:00:00;;;;;;;14.90;7.15;;;10.40;99.90;;;;;;4960409;28;20027;-95
2023/03/18 09:02:26;;;;;;;15.43;6.57;;;10.40;99.90;;;;;;4960135;28;20384;-94
2023/03/18 09:04:54;;;;;;;17.23;6.10;;;10.50;99.90;;;;;;4959753;28;20038;-95
2023/03/18 09:07:20;;;;;;;16.48;6.55;;;10.50;99.90;;;;;;4959793;28;20092;-95
2023/03/18 09:09:45;;;;;;;16.50;6.63;;;10.60;99.90;;;;;;4960667;28;20031;-96
2023/03/18 09:12:12;;;;;;;16.80;5.95;;;10.60;99.90;;;;;;4960614;28;20042;-96
2023/03/18 09:14:39;;;;;;;15.52;6.22;;;10.60;99.90;;;;;;4960670;28;20380;-96
2023/03/18 09:17:05;;;;;;;13.68;6.32;;;10.70;99.90;;;;;;4961009;28;20577;-95
2023/03/18 09:19:31;;;;;;;13.32;5.75;;;10.70;99.90;;;;;;4961152;28;20059;-95
2023/03/18 09:21:58;;;;;;;11.82;4.80;;;10.70;99.90;;;;;;4961641;28;20115;-95
2023/03/18 09:24:23;;;;;;;10.18;5.03;;;10.70;99.90;;;;;;4961245;28;20226;-95
2023/03/18 09:26:49;;;;;;;12.30;3.88;;;10.80;99.90;;;;;;4966514;28;20092;-95
2023/03/18 09:29:15;;;;;;;8.52;4.18;;;10.80;99.90;;;;;;4971167;28;20123;-94
2023/03/18 09:31:40;;;;;;;9.45;4.10;;;10.80;99.90;;;;;;4966307;28;20628;-96
2023/03/18 09:34:06;;;;;;;9.02;4.07;;;10.90;99.90;;;;;;4961786;28;20071;-95
2023/03/18 09:36:32;;;;;;;7.35;4.15;;;10.90;99.90;;;;;;4960570;28;20034;-96
2023/03/18 09:38:59;;;;;;;6.45;3.80;;;10.90;99.90;;;;;;4959795;28;20551;-96
2023/03/18 09:41:43;;;;;;;7.88;3.70;;;10.90;99.90;;;;;;4961060;28;20023;-96
2023/03/18 09:44:20;;;;;;;8.25;3.67;;;11.00;99.90;;;;;;4959891;28;20027;-95
2023/03/18 09:47:07;;;;;;;9.45;3.42;;;11.00;99.90;;;;;;4959770;28;20038;-95
2023/03/18 09:49:44;;;;;;;7.13;3.65;;;11.10;99.90;;;;;;4960354;28;20551;-95
2023/03/18 09:52:36;;;;;;;5.25;3.10;;;11.20;99.90;;;;;;4961466;28;20039;-95
2023/03/18 09:55:21;;;;;;;7.88;3.95;;;11.20;99.90;;;;;;4962440;28;20034;-96
2023/03/18 09:57:49;;;;;;;10.60;4.53;;;11.30;99.90;;;;;;4961610;28;20384;-96
2023/03/18 10:00:23;;;;;;;11.02;3.90;;;11.30;99.90;;;;;;4963434;28;20033;-95
2023/03/18 10:03:05;;;;;;;10.35;5.03;;;11.30;99.90;;;;;;4962904;28;20045;-94
2023/03/18 10:05:32;;;;;;;10.00;5.10;;;11.30;99.90;;;;;;4969597;28;20129;-94
2023/03/18 10:08:06;;;;;;;10.35;5.30;;;11.20;99.90;;;;;;4969130;28;20042;-94
2023/03/18 10:10:45;;;;;;;7.25;4.53;;;11.20;99.90;;;;;;4970603;28;20115;-94
2023/03/18 10:13:26;;;;;;;7.75;3.35;;;11.20;99.90;;;;;;4966175;28;20054;-95
2023/03/18 10:15:55;;;;;;;8.35;3.67;;;11.30;99.90;;;;;;4961606;28;20022;-94
2023/03/18 10:18:26;;;;;;;13.43;3.80;;;11.30;99.90;;;;;;4967185;28;20031;-93
2023/03/18 10:21:18;;;;;;;9.57;3.78;;;11.40;99.90;;;;;;4990915;28;20031;-94
2023/03/18 10:23:51;;;;;;;6.57;2.95;;;11.50;99.90;;;;;;4961553;28;20031;-95
2023/03/18 10:26:47;;;;;;;7.35;3.13;;;11.60;99.90;;;;;;4963703;28;20027;-95
2023/03/18 10:29:39;;;;;;;4.63;2.50;;;11.70;99.90;;;;;;4962941;28;20050;-96
2023/03/18 10:32:39;;;;;;;5.50;3.00;;;11.80;99.90;;;;;;4966400;28;20489;-96
2023/03/18 10:35:27;;;;;;;10.25;3.33;;;11.90;99.90;;;;;;4935736;28;20057;-94
2023/03/18 10:38:11;;;;;;;6.30;2.65;;;11.90;99.90;;;;;;4969594;28;20031;-95
2023/03/18 10:40:40;;;;;;;6.22;3.20;;;12.00;99.90;;;;;;4968324;28;20061;-95
2023/03/18 10:43:20;;;;;;;9.70;3.30;;;12.00;99.90;;;;;;4968932;28;20062;-95
2023/03/18 10:45:50;;;;;;;10.75;3.42;;;12.00;99.90;;;;;;4969129;28;20034;-96
2023/03/18 10:48:33;;;;;;;7.93;2.95;;;12.00;99.90;;;;;;4968979;28;20054;-96
2023/03/18 10:51:27;;;;;;;9.32;3.35;;;12.00;99.90;;;;;;4969214;28;20034;-95
2023/03/18 10:54:22;;;;;;;4.40;3.05;;;12.00;99.90;;;;;;4968399;28;20050;-96
2023/03/18 10:56:48;;;;;;;7.85;3.10;;;12.10;99.90;;;;;;4970476;28;20042;-95
2023/03/18 10:59:17;;;;;;;8.73;3.40;;;12.10;99.90;;;;;;4970916;28;20106;-95
2023/03/18 11:01:56;;;;;;;8.32;3.22;;;12.20;99.90;;;;;;4983860;28;20079;-93
2023/03/18 11:04:23;;;;;;;5.40;2.70;;;12.30;99.90;;;;;;4983616;28;20062;-95
2023/03/18 11:07:03;;;;;;;6.43;2.35;;;12.50;99.90;;;;;;4983138;28;20035;-96
2023/03/18 11:09:46;;;;;;;7.50;2.83;;;12.80;99.90;;;;;;4983767;28;20063;-94
2023/03/18 11:12:17;;;;;;;6.47;2.38;;;13.00;99.90;;;;;;5000325;28;20271;-95
2023/03/18 11:14:52;;;;;;;;;;;13.20;99.90;;;;;;4982660;28;20123;-96
2023/03/18 11:17:28;;;;;;;5.10;2.25;;;13.30;99.90;;;;;;4973542;28;19917;-96
2023/03/18 11:20:09;;;;;;;5.65;2.08;;;13.30;99.90;;;;;;4969181;28;20030;-96
2023/03/18 11:22:51;;;;;;;5.03;1.98;;;13.40;99.90;;;;;;4969099;28;20066;-96
2023/03/18 11:25:44;;;;;;;4.43;1.60;;;13.50;99.90;;;;;;4970097;28;20039;-95
2023/03/18 11:28:30;;;;;;;4.15;1.58;;;13.60;99.90;;;;;;4952947;28;20035;-96
2023/03/18 11:31:07;;;;;;;4.40;1.85;;;14.00;99.90;;;;;;4968479;28;20035;-96
2023/03/18 11:33:33;;;;;;;6.20;1.55;;;14.30;99.90;;;;;;4977695;28;20364;-96
2023/03/18 11:36:05;;;;;;;5.63;1.67;;;14.60;99.90;;;;;;4978260;28;20034;-96
2023/03/18 11:38:46;;;;;;;;;;;;;;;;;;;;;
2023/03/18 11:41:23;;;;;;;6.90;1.42;;;14.70;99.90;;;;;;4993162;28;20077;-96
2023/03/18 11:44:00;;;;;;;5.25;1.20;;;14.60;99.90;;;;;;4977617;28;20090;-96
2023/03/18 11:46:36;;;;;;;4.45;1.40;;;14.50;99.90;;;;;;4978903;28;20169;-96
2023/03/18 11:49:12;;;;;;;5.22;1.45;;;14.40;99.90;;;;;;4977308;28;20027;-96
2023/03/18 11:51:41;;;;;;;5.25;1.80;;;14.30;99.90;;;;;;4976237;28;20053;-96
2023/03/18 11:54:51;;;;;;;3.53;1.73;;;14.20;99.90;;;;;;4976817;28;20034;-96
2023/03/18 11:57:43;;;;;;;5.68;1.67;;;14.20;99.90;;;;;;4976506;28;20041;-96
2023/03/18 12:00:18;;;;;;;2.05;0.98;;;14.30;99.90;;;;;;4976417;28;20013;-96
2023/03/18 12:02:59;;;;;;;1.10;0.90;;;14.30;99.90;;;;;;4982382;28;20027;-95
2023/03/18 12:05:54;;;;;;;3.03;1.00;;;14.20;99.90;;;;;;4982501;28;20019;-95
2023/03/18 12:09:16;;;;;;;1.20;0.90;;;14.20;99.90;;;;;;4978462;28;20059;-95
2023/03/18 12:12:07;;;;;;;3.38;1.30;;;14.20;99.90;;;;;;4952309;29;20086;-96
2023/03/18 12:15:20;;;;;;;2.03;0.80;;;14.30;99.90;;;;;;4978213;29;20028;-95
2023/03/18 12:18:37;;;;;;;;;;;;;;;;;;;;;
2023/03/18 12:21:43;;;;;;;3.60;1.27;;;14.80;99.90;;;;;;4918700;28;20064;-95
2023/03/18 12:53:02;;;;;;;2.33;1.00;;;17.10;95.70;;;;;;5120590;23;20066;-94
2023/03/18 12:56:00;;;;;;;2.97;1.20;;;17.30;95.70;;;;;;4961797;28;20041;-94
2023/03/18 13:02:52;;;;;;;2.72;1.00;;;17.90;94.70;;;;;;4978490;28;20033;-95
2023/03/18 13:06:07;;;;;;;3.10;1.02;;;18.40;93.20;;;;;;4965841;28;20031;-96
2023/03/18 13:16:12;;;;;;;3.45;1.23;;;19.70;89.80;;;;;;4978637;28;20126;-96
2023/03/18 13:18:51;;;;;;;2.80;1.40;;;20.10;85.40;;;;;;4977026;28;20026;-96
2023/03/18 13:21:23;;;;;;;4.88;1.50;;;20.00;83.90;;;;;;4976476;28;20019;-95
2023/03/18 13:24:01;;;;;;;6.00;1.35;;;20.00;83.40;;;;;;4976097;28;20037;-96
2023/03/18 13:26:42;;;;;;;1.65;1.05;;;19.90;83.10;;;;;;4980583;28;20027;-96
2023/03/18 13:29:35;;;;;;;3.38;1.02;;;19.80;82.90;;;;;;4984943;28;20030;-96
2023/03/18 13:32:46;;;;;;;4.43;1.15;;;19.60;82.70;;;;;;4991884;28;20061;-96
2023/03/18 13:35:27;;;;;;;2.85;1.13;;;19.30;82.60;;;;;;4990872;28;20034;-96
2023/03/18 13:38:14;;;;;;;3.85;1.00;;;19.00;82.60;;;;;;4989797;28;20050;-96
2023/03/18 13:40:46;;;;;;;1.80;0.80;;;18.60;82.70;;;;;;4985253;28;20102;-96
2023/03/18 13:43:17;;;;;;;2.97;1.00;;;18.20;82.70;;;;;;4983845;28;20030;-96
2023/03/18 13:45:51;;;;;;;4.82;1.30;;;18.00;83.10;;;;;;4974989;28;20027;-95